Time;durP1;ratioP1;P1;durP2;ratioP2;P2;SDS_P1;SDS_P2;PMS_P1;PMS_P2;Temp;Humidity;BMP_temperature;BMP_pressure;BME280_temperature;BME280_humidity;BME280_pressure;Samples;Min_cycle;Max_cycle;Signal;HPM_P1;HPM_P2
2023/12/20 00:00:12;;;;;;;0.70;0.50;;;;;;;;;;6181660;28;20038;-84
2023/12/20 00:03:14;;;;;;;0.75;0.50;;;;;;;;;;6219818;28;20053;-83
2023/12/20 00:06:15;;;;;;;0.65;0.60;;;;;;;;;;6211370;28;20038;-83
2023/12/20 00:09:17;;;;;;;0.40;0.40;;;;;;;;;;6203776;28;20093;-83
2023/12/20 00:12:19;;;;;;;0.73;0.50;;;;;;;;;;6208112;28;20068;-85
2023/12/20 00:15:21;;;;;;;1.17;0.50;;;;;;;;;;6198735;28;20069;-85
2023/12/20 00:18:23;;;;;;;1.00;0.68;;;;;;;;;;6190269;28;20054;-85
2023/12/20 00:21:25;;;;;;;1.13;0.50;;;;;;;;;;6195488;28;20077;-85
2023/12/20 00:24:26;;;;;;;0.70;0.45;;;;;;;;;;6171539;28;20057;-85
2023/12/20 00:27:28;;;;;;;0.40;0.40;;;;;;;;;;6174701;28;20570;-85
2023/12/20 00:30:29;;;;;;;0.43;0.30;;;;;;;;;;6205891;28;20049;-85
2023/12/20 00:33:31;;;;;;;0.75;0.50;;;;;;;;;;6174364;28;20042;-85
2023/12/20 00:36:33;;;;;;;0.57;0.45;;;;;;;;;;6184227;28;20069;-85
2023/12/20 00:39:34;;;;;;;0.88;0.60;;;;;;;;;;6172829;28;20046;-84
2023/12/20 00:42:36;;;;;;;0.60;0.60;;;;;;;;;;6175193;28;20052;-86
2023/12/20 00:45:39;;;;;;;0.80;0.70;;;;;;;;;;6185737;28;20054;-86
2023/12/20 00:48:42;;;;;;;0.45;0.45;;;;;;;;;;6168866;28;20116;-85
2023/12/20 00:51:44;;;;;;;0.40;0.40;;;;;;;;;;6192627;28;20041;-85
2023/12/20 00:54:45;;;;;;;0.40;0.40;;;;;;;;;;6165466;28;20133;-84
2023/12/20 00:57:47;;;;;;;0.60;0.43;;;;;;;;;;6203218;28;20121;-84
2023/12/20 01:00:49;;;;;;;0.77;0.60;;;;;;;;;;6181552;28;20413;-85
2023/12/20 01:03:51;;;;;;;0.50;0.47;;;;;;;;;;6187942;28;20053;-85
2023/12/20 01:06:53;;;;;;;0.80;0.55;;;;;;;;;;6181720;28;20053;-85
2023/12/20 01:09:55;;;;;;;0.73;0.50;;;;;;;;;;6196062;28;20042;-84
2023/12/20 01:12:57;;;;;;;0.65;0.45;;;;;;;;;;6186393;28;20050;-85
2023/12/20 01:15:58;;;;;;;0.50;0.50;;;;;;;;;;6172044;28;20089;-85
2023/12/20 01:19:01;;;;;;;0.52;0.52;;;;;;;;;;6185885;28;20046;-85
2023/12/20 01:22:03;;;;;;;0.65;0.60;;;;;;;;;;6172319;28;20046;-85
2023/12/20 01:25:05;;;;;;;0.43;0.43;;;;;;;;;;6193273;28;20061;-84
2023/12/20 01:28:07;;;;;;;0.60;0.57;;;;;;;;;;6189930;28;20781;-84
2023/12/20 01:31:09;;;;;;;0.63;0.50;;;;;;;;;;6179368;28;20120;-84
2023/12/20 01:34:10;;;;;;;1.08;0.60;;;;;;;;;;6174277;28;20475;-85
2023/12/20 01:37:13;;;;;;;0.60;0.60;;;;;;;;;;6199062;28;20056;-85
2023/12/20 01:40:16;;;;;;;0.68;0.57;;;;;;;;;;6196959;28;20081;-85
2023/12/20 01:43:18;;;;;;;0.60;0.50;;;;;;;;;;6192407;28;20564;-86
2023/12/20 01:46:20;;;;;;;0.80;0.70;;;;;;;;;;6168255;28;20045;-85
2023/12/20 01:49:22;;;;;;;1.00;0.90;;;;;;;;;;6188020;28;20073;-84
2023/12/20 01:52:25;;;;;;;0.70;0.70;;;;;;;;;;6170489;28;20458;-84
2023/12/20 01:55:32;;;;;;;1.58;0.82;;;;;;;;;;6185047;28;20300;-85
2023/12/20 01:58:39;;;;;;;1.30;0.80;;;;;;;;;;6168650;28;20669;-85
2023/12/20 02:01:40;;;;;;;0.88;0.63;;;;;;;;;;6203653;28;20566;-85
2023/12/20 02:04:43;;;;;;;0.82;0.70;;;;;;;;;;6190162;28;20042;-85
2023/12/20 02:07:44;;;;;;;0.87;0.73;;;;;;;;;;6201379;28;20335;-84
2023/12/20 02:10:47;;;;;;;1.83;0.85;;;;;;;;;;6176356;28;20045;-85
2023/12/20 02:13:48;;;;;;;1.27;1.10;;;;;;;;;;6204536;28;20405;-84
2023/12/20 02:16:50;;;;;;;1.10;0.90;;;;;;;;;;6165970;28;21135;-84
2023/12/20 02:19:52;;;;;;;0.98;0.90;;;;;;;;;;6196711;28;20267;-85
2023/12/20 02:22:54;;;;;;;1.00;0.90;;;;;;;;;;6177491;28;20038;-84
2023/12/20 02:25:55;;;;;;;1.98;1.00;;;;;;;;;;6188396;28;20050;-85
2023/12/20 02:28:58;;;;;;;1.02;0.82;;;;;;;;;;6196955;28;20042;-85
2023/12/20 02:32:00;;;;;;;0.57;0.57;;;;;;;;;;6196009;28;20050;-85
2023/12/20 02:35:01;;;;;;;0.50;0.50;;;;;;;;;;6172574;28;20026;-85
2023/12/20 02:38:03;;;;;;;0.52;0.50;;;;;;;;;;6207291;28;20054;-84
2023/12/20 02:41:05;;;;;;;0.35;0.35;;;;;;;;;;6193580;28;20061;-84
2023/12/20 02:44:06;;;;;;;0.93;0.50;;;;;;;;;;6200455;28;20139;-84
2023/12/20 02:47:08;;;;;;;1.17;0.75;;;;;;;;;;6201587;28;20046;-84
2023/12/20 02:50:10;;;;;;;2.97;0.75;;;;;;;;;;6185481;28;20134;-84
2023/12/20 02:53:12;;;;;;;1.73;0.73;;;;;;;;;;6192451;28;20577;-83
2023/12/20 02:56:14;;;;;;;2.40;0.95;;;;;;;;;;6179994;28;20168;-84
2023/12/20 02:59:16;;;;;;;2.17;0.95;;;;;;;;;;6197660;28;20053;-84
2023/12/20 03:02:18;;;;;;;1.98;1.08;;;;;;;;;;6194114;28;20053;-83
2023/12/20 03:05:20;;;;;;;2.03;1.10;;;;;;;;;;6175990;28;20135;-83
2023/12/20 03:08:22;;;;;;;2.67;1.20;;;;;;;;;;6165053;28;20054;-83
2023/12/20 03:11:27;;;;;;;1.55;1.30;;;;;;;;;;6191089;28;20655;-83
2023/12/20 03:14:29;;;;;;;2.55;1.20;;;;;;;;;;6195240;28;20046;-84
2023/12/20 03:17:30;;;;;;;3.78;1.33;;;;;;;;;;6183883;28;20050;-84
2023/12/20 03:20:34;;;;;;;3.47;1.35;;;;;;;;;;6172628;28;20052;-83
2023/12/20 03:23:35;;;;;;;;;;;;;;;;;;6178549;28;20074;-85
2023/12/20 03:26:37;;;;;;;4.07;1.45;;;;;;;;;;6183320;28;19925;-83
2023/12/20 03:29:39;;;;;;;3.80;1.35;;;;;;;;;;6181398;28;20041;-83
2023/12/20 03:32:40;;;;;;;2.88;1.98;;;;;;;;;;6182284;28;20493;-83
2023/12/20 03:35:42;;;;;;;3.47;1.45;;;;;;;;;;6178393;28;20049;-84
2023/12/20 03:38:44;;;;;;;3.95;1.73;;;;;;;;;;6184653;28;20050;-83
2023/12/20 03:41:46;;;;;;;3.55;1.60;;;;;;;;;;6192090;28;20050;-84
2023/12/20 03:44:47;;;;;;;5.25;1.70;;;;;;;;;;6181884;28;20421;-83
2023/12/20 03:47:49;;;;;;;4.88;1.80;;;;;;;;;;6197633;28;20390;-84
2023/12/20 03:50:51;;;;;;;3.80;1.77;;;;;;;;;;6182141;28;20049;-83
2023/12/20 03:53:53;;;;;;;5.47;2.08;;;;;;;;;;6162522;28;20416;-84
2023/12/20 03:56:55;;;;;;;4.20;2.00;;;;;;;;;;6159711;28;20049;-83
2023/12/20 03:59:56;;;;;;;3.33;2.00;;;;;;;;;;6203224;28;20432;-84
2023/12/20 04:02:58;;;;;;;6.28;1.95;;;;;;;;;;6168889;28;20560;-83
2023/12/20 04:06:00;;;;;;;5.43;2.08;;;;;;;;;;6203167;28;20053;-84
2023/12/20 04:09:02;;;;;;;4.40;2.45;;;;;;;;;;6185547;28;20046;-83
2023/12/20 04:12:05;;;;;;;5.32;2.50;;;;;;;;;;6194761;28;20486;-84
2023/12/20 04:15:09;;;;;;;8.52;2.63;;;;;;;;;;6205314;28;20042;-82
2023/12/20 04:18:11;;;;;;;7.85;2.90;;;;;;;;;;6197872;28;20054;-83
2023/12/20 04:21:13;;;;;;;9.15;3.10;;;;;;;;;;6182650;28;20159;-82
2023/12/20 04:24:15;;;;;;;8.40;3.20;;;;;;;;;;6164004;28;20372;-83
2023/12/20 04:27:16;;;;;;;8.68;3.33;;;;;;;;;;6203101;28;20529;-84
2023/12/20 04:30:18;;;;;;;7.43;3.40;;;;;;;;;;6170096;28;20084;-83
2023/12/20 04:33:20;;;;;;;10.32;3.60;;;;;;;;;;6182777;28;20088;-83
2023/12/20 04:36:22;;;;;;;8.02;3.25;;;;;;;;;;6177021;28;20050;-84
2023/12/20 04:39:23;;;;;;;8.45;3.03;;;;;;;;;;6211924;28;20046;-84
2023/12/20 04:42:25;;;;;;;5.50;2.97;;;;;;;;;;6215953;28;20050;-83
2023/12/20 04:45:27;;;;;;;6.30;2.75;;;;;;;;;;6212296;28;20104;-83
2023/12/20 04:48:28;;;;;;;5.68;2.13;;;;;;;;;;6180385;28;20050;-83
2023/12/20 04:51:33;;;;;;;4.90;2.22;;;;;;;;;;6183993;28;20187;-83
2023/12/20 04:54:35;;;;;;;5.93;2.63;;;;;;;;;;6171609;28;20038;-83
2023/12/20 04:57:37;;;;;;;5.10;2.10;;;;;;;;;;6183325;28;20039;-83
2023/12/20 05:00:38;;;;;;;5.97;2.22;;;;;;;;;;6194231;28;20054;-83
2023/12/20 05:03:40;;;;;;;3.22;1.95;;;;;;;;;;6205229;28;20050;-83
2023/12/20 05:06:42;;;;;;;5.15;2.08;;;;;;;;;;6208424;28;20519;-84
2023/12/20 05:09:44;;;;;;;3.92;1.75;;;;;;;;;;6185993;28;20058;-84
2023/12/20 05:12:45;;;;;;;5.75;1.70;;;;;;;;;;6184282;28;20054;-82
2023/12/20 05:15:47;;;;;;;2.92;1.30;;;;;;;;;;6188887;28;20129;-84
2023/12/20 05:18:50;;;;;;;4.32;1.60;;;;;;;;;;6186438;28;20432;-83
2023/12/20 05:21:51;;;;;;;6.70;2.03;;;;;;;;;;6172571;28;20092;-84
2023/12/20 05:24:53;;;;;;;7.60;2.28;;;;;;;;;;6184973;28;20040;-83
2023/12/20 05:27:56;;;;;;;6.10;2.10;;;;;;;;;;6205623;28;20053;-84
2023/12/20 05:30:58;;;;;;;4.13;1.92;;;;;;;;;;6163966;28;20050;-84
2023/12/20 05:34:00;;;;;;;4.07;2.17;;;;;;;;;;6183468;28;20054;-84
2023/12/20 05:37:02;;;;;;;5.10;1.70;;;;;;;;;;6189173;28;20245;-84
2023/12/20 05:40:04;;;;;;;4.93;2.00;;;;;;;;;;6208507;28;20045;-84
2023/12/20 05:43:07;;;;;;;4.15;1.65;;;;;;;;;;6193047;28;20150;-85
2023/12/20 05:46:12;;;;;;;6.35;1.85;;;;;;;;;;6188347;28;20102;-84
2023/12/20 05:49:14;;;;;;;3.85;1.70;;;;;;;;;;6200980;28;20046;-84
2023/12/20 05:52:16;;;;;;;5.32;1.83;;;;;;;;;;6208310;28;20061;-84
2023/12/20 05:55:18;;;;;;;3.72;2.00;;;;;;;;;;6203619;28;20050;-84
2023/12/20 05:58:19;;;;;;;5.45;2.10;;;;;;;;;;6197259;28;20050;-85
2023/12/20 06:01:21;;;;;;;3.00;1.77;;;;;;;;;;6181573;28;20056;-85
2023/12/20 06:04:23;;;;;;;7.25;2.55;;;;;;;;;;6177671;28;20061;-84
2023/12/20 06:07:25;;;;;;;7.28;1.98;;;;;;;;;;6205072;28;20046;-84
2023/12/20 06:10:27;;;;;;;5.28;1.92;;;;;;;;;;6190645;28;20038;-85
2023/12/20 06:13:29;;;;;;;7.10;2.22;;;;;;;;;;6192737;28;20046;-84
2023/12/20 06:16:31;;;;;;;6.72;2.13;;;;;;;;;;6179198;28;20057;-85
2023/12/20 06:19:32;;;;;;;8.35;2.60;;;;;;;;;;6199236;28;20124;-84
2023/12/20 06:22:35;;;;;;;4.82;1.98;;;;;;;;;;6196920;28;20071;-86
2023/12/20 06:25:37;;;;;;;6.80;1.97;;;;;;;;;;6172023;28;20038;-84
2023/12/20 06:28:39;;;;;;;7.20;3.13;;;;;;;;;;6203749;28;20461;-86
2023/12/20 06:31:43;;;;;;;7.75;3.63;;;;;;;;;;6177184;28;20049;-85
2023/12/20 06:34:44;;;;;;;8.07;3.40;;;;;;;;;;6202329;28;20046;-86
2023/12/20 06:37:46;;;;;;;39.05;22.10;;;;;;;;;;6188302;28;20082;-84
2023/12/20 06:40:48;;;;;;;8.77;3.33;;;;;;;;;;6177499;28;20522;-86
2023/12/20 06:43:52;;;;;;;6.30;2.35;;;;;;;;;;6191650;28;20053;-85
2023/12/20 06:46:54;;;;;;;4.93;2.38;;;;;;;;;;6193564;28;20045;-85
2023/12/20 06:49:56;;;;;;;6.28;2.53;;;;;;;;;;6210754;28;20508;-86
2023/12/20 06:52:58;;;;;;;9.00;2.55;;;;;;;;;;6177133;28;20057;-85
2023/12/20 06:56:00;;;;;;;6.38;2.67;;;;;;;;;;6175287;28;20049;-85
2023/12/20 06:59:02;;;;;;;11.70;3.08;;;;;;;;;;6204835;28;20436;-84
2023/12/20 07:02:05;;;;;;;7.65;2.63;;;;;;;;;;6208984;28;20053;-85
2023/12/20 07:05:07;;;;;;;11.35;2.75;;;;;;;;;;6193593;28;20042;-84
2023/12/20 07:08:09;;;;;;;9.45;2.53;;;;;;;;;;6185522;28;20041;-84
2023/12/20 07:11:10;;;;;;;7.13;2.67;;;;;;;;;;6198081;28;20054;-84
2023/12/20 07:14:12;;;;;;;8.52;2.63;;;;;;;;;;6184299;28;20046;-84
2023/12/20 07:17:15;;;;;;;7.57;2.53;;;;;;;;;;6173612;28;20109;-84
2023/12/20 07:20:17;;;;;;;6.50;2.30;;;;;;;;;;6201544;28;20096;-84
2023/12/20 07:23:20;;;;;;;7.43;2.70;;;;;;;;;;6185446;28;20453;-83
2023/12/20 07:26:21;;;;;;;8.52;2.42;;;;;;;;;;6167120;28;20042;-83
2023/12/20 07:29:23;;;;;;;8.35;2.75;;;;;;;;;;6169792;28;20156;-84
2023/12/20 07:32:25;;;;;;;10.85;2.95;;;;;;;;;;6202391;28;20030;-83
2023/12/20 07:35:27;;;;;;;10.27;2.65;;;;;;;;;;6217170;28;20535;-84
2023/12/20 07:38:28;;;;;;;19.67;7.57;;;;;;;;;;6196603;28;20042;-83
2023/12/20 07:41:30;;;;;;;36.20;12.32;;;;;;;;;;6159818;28;20054;-84
2023/12/20 07:44:32;;;;;;;4.57;2.15;;;;;;;;;;6180309;28;20038;-83
2023/12/20 07:47:33;;;;;;;17.75;7.38;;;;;;;;;;6178953;28;20049;-84
2023/12/20 07:50:35;;;;;;;7.10;2.50;;;;;;;;;;6178272;28;20046;-83
2023/12/20 07:53:37;;;;;;;31.05;15.95;;;;;;;;;;6197655;28;20042;-83
2023/12/20 07:56:39;;;;;;;20.83;9.13;;;;;;;;;;6195604;28;20319;-84
2023/12/20 07:59:41;;;;;;;10.10;2.65;;;;;;;;;;6180785;28;20042;-84
2023/12/20 08:02:43;;;;;;;33.83;20.20;;;;;;;;;;6176892;28;20081;-84
2023/12/20 08:05:45;;;;;;;44.50;19.45;;;;;;;;;;6179315;28;20076;-83
2023/12/20 08:08:47;;;;;;;22.55;11.13;;;;;;;;;;6179294;28;20054;-84
2023/12/20 08:11:59;;;;;;;8.68;3.17;;;;;;;;;;6186228;28;20057;-83
2023/12/20 08:15:02;;;;;;;21.15;9.77;;;;;;;;;;6205187;28;20137;-83
2023/12/20 08:18:04;;;;;;;24.00;12.32;;;;;;;;;;6179662;28;20703;-83
2023/12/20 08:21:09;;;;;;;81.93;42.03;;;;;;;;;;6173941;28;20123;-83
2023/12/20 08:24:10;;;;;;;20.80;10.15;;;;;;;;;;6169856;28;20046;-82
2023/12/20 08:27:12;;;;;;;20.67;13.32;;;;;;;;;;6194331;28;20467;-83
2023/12/20 08:30:14;;;;;;;10.10;5.35;;;;;;;;;;6200831;28;20046;-83
2023/12/20 08:33:15;;;;;;;10.88;4.72;;;;;;;;;;6199328;28;20558;-83
2023/12/20 08:36:18;;;;;;;7.85;3.55;;;;;;;;;;6197366;28;20042;-83
2023/12/20 08:39:23;;;;;;;7.18;2.38;;;;;;;;;;6185755;28;20500;-84
2023/12/20 08:42:30;;;;;;;11.15;4.70;;;;;;;;;;6182131;28;20497;-82
2023/12/20 08:45:32;;;;;;;12.25;5.43;;;;;;;;;;6179860;28;20038;-82
2023/12/20 08:48:33;;;;;;;8.30;3.20;;;;;;;;;;6217410;28;20046;-83
2023/12/20 08:51:35;;;;;;;14.38;5.50;;;;;;;;;;6214001;28;20077;-82
2023/12/20 08:54:37;;;;;;;8.80;4.28;;;;;;;;;;6191479;28;20046;-84
2023/12/20 08:57:39;;;;;;;11.77;5.00;;;;;;;;;;6174281;28;20057;-83
2023/12/20 09:00:41;;;;;;;10.55;4.30;;;;;;;;;;6186493;28;20042;-82
2023/12/20 09:03:43;;;;;;;18.10;6.13;;;;;;;;;;6198074;28;20046;-83
2023/12/20 09:06:45;;;;;;;6.93;3.53;;;;;;;;;;6199098;28;20050;-83
2023/12/20 09:09:47;;;;;;;13.93;7.95;;;;;;;;;;6197819;28;20409;-83
2023/12/20 09:12:57;;;;;;;8.77;3.92;;;;;;;;;;6185175;28;20188;-84
2023/12/20 09:15:59;;;;;;;7.93;2.50;;;;;;;;;;6188958;28;20041;-84
2023/12/20 09:19:01;;;;;;;8.65;2.10;;;;;;;;;;6187378;28;20050;-85
2023/12/20 09:22:03;;;;;;;5.53;2.30;;;;;;;;;;6186834;28;20045;-84
2023/12/20 09:25:05;;;;;;;8.02;2.70;;;;;;;;;;6169393;28;20046;-83
2023/12/20 09:28:07;;;;;;;7.85;3.47;;;;;;;;;;6184300;28;20047;-84
2023/12/20 09:31:09;;;;;;;10.25;5.78;;;;;;;;;;6170962;28;20064;-82
2023/12/20 09:34:10;;;;;;;8.57;5.03;;;;;;;;;;6191029;28;20050;-82
2023/12/20 09:37:12;;;;;;;18.35;12.07;;;;;;;;;;6181858;28;20043;-81
2023/12/20 09:40:17;;;;;;;11.68;5.40;;;;;;;;;;6186824;28;20057;-84
2023/12/20 09:43:20;;;;;;;7.20;2.95;;;;;;;;;;6188882;28;20058;-83
2023/12/20 09:46:26;;;;;;;11.45;3.33;;;;;;;;;;6176044;28;20065;-83
2023/12/20 09:49:30;;;;;;;7.22;2.42;;;;;;;;;;6216588;23;20037;-89
2023/12/20 09:52:34;;;;;;;4.45;2.05;;;;;;;;;;6241814;28;20033;-90
2023/12/20 09:55:36;;;;;;;10.38;2.08;;;;;;;;;;6257936;28;20045;-89
2023/12/20 09:58:39;;;;;;;5.38;2.10;;;;;;;;;;6220698;28;20053;-88
2023/12/20 10:01:42;;;;;;;8.20;2.83;;;;;;;;;;6229018;28;20519;-89
2023/12/20 10:04:47;;;;;;;5.80;2.22;;;;;;;;;;6231222;28;20065;-89
2023/12/20 10:07:49;;;;;;;8.95;2.15;;;;;;;;;;6230923;28;20415;-90
2023/12/20 10:10:51;;;;;;;9.35;2.47;;;;;;;;;;6209464;28;20068;-89
2023/12/20 10:14:02;;;;;;;7.93;2.20;;;;;;;;;;6231605;28;20045;-90
2023/12/20 10:17:04;;;;;;;8.05;2.38;;;;;;;;;;6213466;28;20650;-89
2023/12/20 10:20:09;;;;;;;6.63;2.10;;;;;;;;;;6200624;28;20033;-90
2023/12/20 10:23:13;;;;;;;5.53;3.28;;;;;;;;;;6212357;28;20575;-90
2023/12/20 10:26:27;;;;;;;9.68;2.67;;;;;;;;;;6216539;28;20041;-91
2023/12/20 10:29:35;;;;;;;7.43;2.53;;;;;;;;;;6211806;28;20056;-89
2023/12/20 10:32:39;;;;;;;8.82;2.40;;;;;;;;;;6212249;28;20085;-90
2023/12/20 10:35:41;;;;;;;7.28;2.47;;;;;;;;;;6213231;28;20049;-90
2023/12/20 10:38:50;;;;;;;7.10;2.20;;;;;;;;;;6223027;28;20045;-91
2023/12/20 10:41:51;;;;;;;19.55;9.23;;;;;;;;;;6223237;28;20045;-90
2023/12/20 10:44:53;;;;;;;8.48;2.80;;;;;;;;;;6211333;28;20053;-90
2023/12/20 10:47:56;;;;;;;8.25;3.25;;;;;;;;;;6227547;28;20350;-90
2023/12/20 10:50:58;;;;;;;8.60;4.03;;;;;;;;;;6227765;28;20042;-90
2023/12/20 10:53:59;;;;;;;8.52;2.10;;;;;;;;;;6226124;28;20573;-90
2023/12/20 10:57:05;;;;;;;6.07;2.42;;;;;;;;;;6252602;28;20045;-92
2023/12/20 11:00:11;;;;;;;7.47;2.20;;;;;;;;;;6224543;28;20572;-91
2023/12/20 11:03:17;;;;;;;9.85;2.88;;;;;;;;;;6219451;28;20045;-90
2023/12/20 11:06:49;;;;;;;8.02;2.28;;;;;;;;;;6224523;28;20526;-90
2023/12/20 11:10:10;;;;;;;10.07;2.45;;;;;;;;;;6210451;28;20056;-90
2023/12/20 11:13:26;;;;;;;9.02;2.60;;;;;;;;;;6206896;28;20057;-90
2023/12/20 11:16:37;;;;;;;8.07;3.95;;;;;;;;;;6238036;28;20053;-90
2023/12/20 11:19:52;;;;;;;5.53;1.95;;;;;;;;;;6214340;28;20053;-90
2023/12/20 11:22:54;;;;;;;14.60;4.88;;;;;;;;;;6212667;28;20041;-90
2023/12/20 11:26:00;;;;;;;9.87;2.37;;;;;;;;;;6207730;28;20058;-91
2023/12/20 11:29:29;;;;;;;6.63;2.70;;;;;;;;;;6225106;28;20034;-91
2023/12/20 11:32:33;;;;;;;7.68;2.88;;;;;;;;;;6223465;28;20045;-91
2023/12/20 11:35:36;;;;;;;10.65;2.75;;;;;;;;;;6199964;28;20038;-90
2023/12/20 11:38:38;;;;;;;7.18;3.72;;;;;;;;;;6215587;28;20057;-91
2023/12/20 11:41:40;;;;;;;14.65;5.95;;;;;;;;;;6212542;28;20046;-90
2023/12/20 11:44:42;;;;;;;7.30;2.25;;;;;;;;;;6204150;28;20403;-91
2023/12/20 11:47:46;;;;;;;15.50;5.72;;;;;;;;;;6218025;28;20045;-90
2023/12/20 11:50:49;;;;;;;6.30;1.95;;;;;;;;;;6231055;28;20427;-90
2023/12/20 11:53:52;;;;;;;7.50;2.67;;;;;;;;;;6224694;28;20056;-90
2023/12/20 11:56:54;;;;;;;19.88;11.18;;;;;;;;;;6241273;28;20044;-92
2023/12/20 11:59:56;;;;;;;9.05;3.25;;;;;;;;;;6251157;28;20049;-90
2023/12/20 12:02:59;;;;;;;5.85;2.50;;;;;;;;;;6222591;28;20052;-90
2023/12/20 12:06:04;;;;;;;13.73;5.90;;;;;;;;;;6219218;28;20049;-89
2023/12/20 12:09:07;;;;;;;8.80;4.03;;;;;;;;;;6233047;28;20468;-91
2023/12/20 12:12:10;;;;;;;5.30;2.53;;;;;;;;;;6215000;28;20042;-90
2023/12/20 12:15:15;;;;;;;17.38;5.43;;;;;;;;;;6199801;28;20057;-91
2023/12/20 12:18:17;;;;;;;4.72;2.17;;;;;;;;;;6223198;28;20419;-90
2023/12/20 12:21:20;;;;;;;12.87;2.87;;;;;;;;;;6201030;28;20045;-90
2023/12/20 12:24:23;;;;;;;7.97;2.20;;;;;;;;;;6211177;28;20054;-91
2023/12/20 12:27:25;;;;;;;4.43;2.10;;;;;;;;;;6205965;28;20049;-91
2023/12/20 12:30:27;;;;;;;9.20;2.63;;;;;;;;;;6219189;28;20607;-91
2023/12/20 12:33:35;;;;;;;21.88;10.63;;;;;;;;;;6190705;28;20519;-90
2023/12/20 12:36:39;;;;;;;12.10;4.88;;;;;;;;;;6185183;28;20042;-89
2023/12/20 12:39:41;;;;;;;;;;;;;;;;;;6230551;28;20079;-90
2023/12/20 12:42:44;;;;;;;7.63;2.20;;;;;;;;;;6230208;28;19960;-91
2023/12/20 12:45:46;;;;;;;;;;;;;;;;;;6230048;28;20056;-90
2023/12/20 12:48:50;;;;;;;8.32;3.22;;;;;;;;;;6200696;28;20426;-91
2023/12/20 12:51:52;;;;;;;13.50;3.28;;;;;;;;;;6185387;28;20405;-91
2023/12/20 12:55:50;;;;;;;7.97;2.85;;;;;;;;;;6213878;28;20512;-91
2023/12/20 12:59:31;;;;;;;10.13;4.38;;;;;;;;;;6240070;28;20025;-91
2023/12/20 13:02:33;;;;;;;9.13;3.88;;;;;;;;;;6240048;28;20041;-91
2023/12/20 13:05:35;;;;;;;7.70;2.63;;;;;;;;;;6216878;28;20504;-91
2023/12/20 13:08:41;;;;;;;13.05;2.92;;;;;;;;;;6194956;28;20609;-92
2023/12/20 13:11:43;;;;;;;7.78;3.03;;;;;;;;;;6209579;28;20050;-92
2023/12/20 13:14:45;;;;;;;12.90;2.83;;;;;;;;;;6226679;28;20053;-91
2023/12/20 13:17:55;;;;;;;6.72;4.22;;;;;;;;;;6211769;28;20577;-91
2023/12/20 13:21:01;;;;;;;9.45;2.90;;;;;;;;;;6196696;28;20042;-91
2023/12/20 13:24:04;;;;;;;9.45;3.10;;;;;;;;;;6199768;28;20454;-92
2023/12/20 13:27:05;;;;;;;9.82;3.17;;;;;;;;;;6212225;28;20049;-90
2023/12/20 13:30:08;;;;;;;10.00;4.20;;;;;;;;;;6212974;28;20494;-91
2023/12/20 13:33:11;;;;;;;5.97;2.72;;;;;;;;;;6228518;28;20042;-91
2023/12/20 13:36:13;;;;;;;8.18;4.03;;;;;;;;;;6232282;28;20482;-91
2023/12/20 13:39:14;;;;;;;20.60;11.35;;;;;;;;;;6225394;28;20064;-91
2023/12/20 13:42:16;;;;;;;11.18;3.72;;;;;;;;;;6237279;28;20049;-91
2023/12/20 13:45:18;;;;;;;10.52;4.53;;;;;;;;;;6190480;28;20050;-90
2023/12/20 13:48:20;;;;;;;13.35;7.95;;;;;;;;;;6208148;28;20045;-91
2023/12/20 13:51:22;;;;;;;8.23;2.80;;;;;;;;;;6215603;28;20049;-91
2023/12/20 13:54:24;;;;;;;12.57;3.35;;;;;;;;;;6217052;28;20699;-90
2023/12/20 13:57:26;;;;;;;16.77;7.97;;;;;;;;;;6221336;28;20868;-90
2023/12/20 14:00:48;;;;;;;7.18;2.83;;;;;;;;;;6213147;28;20037;-92
2023/12/20 14:04:02;;;;;;;7.03;2.83;;;;;;;;;;6227183;28;20053;-89
2023/12/20 14:07:05;;;;;;;8.00;2.67;;;;;;;;;;6208329;28;20045;-91
2023/12/20 14:10:07;;;;;;;2.93;2.07;;;;;;;;;;6200111;28;20046;-89
2023/12/20 14:13:10;;;;;;;3.67;1.77;;;;;;;;;;6223190;28;20052;-91
2023/12/20 14:16:23;;;;;;;7.63;2.50;;;;;;;;;;6204341;28;20584;-90
2023/12/20 14:19:27;;;;;;;4.45;2.63;;;;;;;;;;6217720;28;20100;-88
2023/12/20 14:22:32;;;;;;;8.13;3.30;;;;;;;;;;6200704;28;20124;-90
2023/12/20 14:25:36;;;;;;;6.25;2.50;;;;;;;;;;6218454;28;20045;-91
2023/12/20 14:28:53;;;;;;;4.28;1.95;;;;;;;;;;6202606;28;20503;-90
2023/12/20 14:35:33;;;;;;;8.27;2.85;;;;;;;;;;6184069;28;20047;-92
2023/12/20 14:38:50;;;;;;;9.20;2.33;;;;;;;;;;6200202;28;20718;-90
2023/12/20 14:42:04;;;;;;;4.97;2.05;;;;;;;;;;6170341;28;20088;-91
2023/12/20 14:45:12;;;;;;;9.00;4.97;;;;;;;;;;6202381;28;20049;-90
2023/12/20 14:48:18;;;;;;;7.00;4.32;;;;;;;;;;6174188;28;20046;-90
2023/12/20 14:51:31;;;;;;;;;;;;;;;;;;6200538;28;20072;-92
2023/12/20 14:54:36;;;;;;;10.80;6.43;;;;;;;;;;6186625;28;20280;-91
2023/12/20 14:57:53;;;;;;;8.23;2.47;;;;;;;;;;6181001;28;20041;-90
2023/12/20 15:00:56;;;;;;;7.13;3.17;;;;;;;;;;6214768;28;20052;-91
2023/12/20 15:03:57;;;;;;;4.20;2.25;;;;;;;;;;6212606;28;20037;-90
2023/12/20 15:07:01;;;;;;;6.18;1.50;;;;;;;;;;6228854;28;20052;-92
2023/12/20 15:10:03;;;;;;;2.90;1.73;;;;;;;;;;6235551;28;20093;-91
2023/12/20 15:13:05;;;;;;;3.97;1.80;;;;;;;;;;6210604;28;20048;-91
2023/12/20 15:16:08;;;;;;;4.95;1.50;;;;;;;;;;6215228;28;20175;-92
2023/12/20 15:19:09;;;;;;;2.50;1.73;;;;;;;;;;6228963;28;20507;-89
2023/12/20 15:22:12;;;;;;;4.25;1.40;;;;;;;;;;6214464;28;20065;-90
2023/12/20 15:25:20;;;;;;;4.70;1.50;;;;;;;;;;6218335;28;20045;-90
2023/12/20 15:28:22;;;;;;;2.95;1.60;;;;;;;;;;6199142;28;20529;-90
2023/12/20 15:31:26;;;;;;;3.05;1.90;;;;;;;;;;6202720;28;20090;-90
2023/12/20 15:34:28;;;;;;;4.70;1.58;;;;;;;;;;6208992;28;20046;-90
2023/12/20 15:37:30;;;;;;;3.55;1.60;;;;;;;;;;6227244;28;20041;-92
2023/12/20 15:40:32;;;;;;;2.53;1.60;;;;;;;;;;6235388;28;20037;-90
2023/12/20 15:43:36;;;;;;;4.25;1.58;;;;;;;;;;6215932;28;20053;-90
2023/12/20 15:46:38;;;;;;;4.82;2.00;;;;;;;;;;6215860;28;20128;-90
2023/12/20 15:49:40;;;;;;;5.85;1.70;;;;;;;;;;6221848;28;20045;-89
2023/12/20 15:52:43;;;;;;;2.72;1.42;;;;;;;;;;6233064;28;20670;-91
2023/12/20 15:55:45;;;;;;;2.17;1.33;;;;;;;;;;6219479;28;20053;-89
2023/12/20 15:58:51;;;;;;;4.47;1.60;;;;;;;;;;6217983;28;20687;-90
2023/12/20 16:01:53;;;;;;;3.72;1.85;;;;;;;;;;6226961;28;20052;-90
2023/12/20 16:04:55;;;;;;;4.03;2.15;;;;;;;;;;6219169;28;20042;-91
2023/12/20 16:07:57;;;;;;;2.35;1.40;;;;;;;;;;6198582;28;20502;-92
2023/12/20 16:10:59;;;;;;;3.03;1.95;;;;;;;;;;6245539;28;20052;-90
2023/12/20 16:14:01;;;;;;;1.85;1.20;;;;;;;;;;6243001;28;20033;-90
2023/12/20 16:17:05;;;;;;;3.53;1.50;;;;;;;;;;6209964;28;20053;-90
2023/12/20 16:20:08;;;;;;;5.00;1.70;;;;;;;;;;6219880;28;20526;-91
2023/12/20 16:23:10;;;;;;;3.60;1.98;;;;;;;;;;6208375;28;20145;-90
2023/12/20 16:26:13;;;;;;;2.65;1.50;;;;;;;;;;6219157;28;20113;-91
2023/12/20 16:29:15;;;;;;;2.67;1.25;;;;;;;;;;6211833;28;20049;-91
2023/12/20 16:32:16;;;;;;;3.60;1.70;;;;;;;;;;6216323;28;20053;-92
2023/12/20 16:35:18;;;;;;;2.50;1.20;;;;;;;;;;6254525;28;20072;-92
2023/12/20 16:38:20;;;;;;;3.60;1.20;;;;;;;;;;6231561;28;20057;-92
2023/12/20 16:41:22;;;;;;;1.73;1.55;;;;;;;;;;6201509;28;20404;-90
2023/12/20 16:44:24;;;;;;;2.35;1.15;;;;;;;;;;6219078;28;20050;-90
2023/12/20 16:47:27;;;;;;;2.85;1.35;;;;;;;;;;6230113;28;20056;-89
2023/12/20 16:50:28;;;;;;;2.05;1.40;;;;;;;;;;6216507;28;20545;-90
2023/12/20 16:53:30;;;;;;;1.80;1.15;;;;;;;;;;6219669;28;20403;-90
2023/12/20 16:56:32;;;;;;;4.38;0.95;;;;;;;;;;6206164;28;20128;-91
2023/12/20 16:59:43;;;;;;;2.72;1.20;;;;;;;;;;6231638;28;20077;-91
2023/12/20 17:02:54;;;;;;;2.20;1.75;;;;;;;;;;6197090;28;20042;-90
2023/12/20 17:05:56;;;;;;;4.80;1.63;;;;;;;;;;6202145;28;20538;-89
2023/12/20 17:08:57;;;;;;;2.17;1.40;;;;;;;;;;6194064;28;20041;-89
2023/12/20 17:11:59;;;;;;;2.45;1.40;;;;;;;;;;6226687;28;20042;-89
2023/12/20 17:15:03;;;;;;;3.33;1.65;;;;;;;;;;6197338;28;20096;-91
2023/12/20 17:18:05;;;;;;;2.20;1.90;;;;;;;;;;6241105;28;20053;-89
2023/12/20 17:21:36;;;;;;;5.63;1.80;;;;;;;;;;6209158;28;20049;-90
2023/12/20 17:24:47;;;;;;;6.88;2.28;;;;;;;;;;6178287;28;20048;-89
2023/12/20 17:27:49;;;;;;;10.07;2.22;;;;;;;;;;6181636;28;20049;-89
2023/12/20 17:30:50;;;;;;;8.38;2.40;;;;;;;;;;6186660;28;20057;-89
2023/12/20 17:33:52;;;;;;;5.20;2.35;;;;;;;;;;6218688;28;20056;-90
2023/12/20 17:36:54;;;;;;;6.63;2.10;;;;;;;;;;6233405;28;20045;-89
2023/12/20 17:39:59;;;;;;;4.57;1.80;;;;;;;;;;6168774;28;20049;-90
2023/12/20 17:43:01;;;;;;;4.18;2.05;;;;;;;;;;6216962;28;20525;-90
2023/12/20 17:46:03;;;;;;;5.03;2.00;;;;;;;;;;6217693;28;20069;-89
2023/12/20 17:49:05;;;;;;;5.18;2.20;;;;;;;;;;6222472;28;20136;-91
2023/12/20 17:52:08;;;;;;;4.90;2.38;;;;;;;;;;6218377;28;20133;-89
2023/12/20 17:55:10;;;;;;;5.75;2.25;;;;;;;;;;6190551;28;20045;-90
2023/12/20 17:58:12;;;;;;;4.25;1.98;;;;;;;;;;6229222;28;20052;-90
2023/12/20 18:01:14;;;;;;;6.07;1.80;;;;;;;;;;6227803;28;20161;-90
2023/12/20 18:04:33;;;;;;;4.13;1.88;;;;;;;;;;6202402;28;20071;-89
2023/12/20 18:07:38;;;;;;;1.98;1.40;;;;;;;;;;6208655;28;20046;-90
2023/12/20 18:10:41;;;;;;;1.95;1.45;;;;;;;;;;6217045;28;20045;-90
2023/12/20 18:13:44;;;;;;;3.20;1.23;;;;;;;;;;6190406;28;20049;-92
2023/12/20 18:16:46;;;;;;;2.75;1.52;;;;;;;;;;6232242;28;20172;-90
2023/12/20 18:19:48;;;;;;;2.95;1.30;;;;;;;;;;6226095;28;20052;-91